Time;durP1;ratioP1;P1;durP2;ratioP2;P2;SDS_P1;SDS_P2;PMS_P1;PMS_P2;Temp;Humidity;BMP_temperature;BMP_pressure;BME280_temperature;BME280_humidity;BME280_pressure;Samples;Min_cycle;Max_cycle;Signal;HPM_P1;HPM_P2
2022/04/10 00:01:10;;;;;;;30.45;12.03;;;;;;;7.58;100.00;99146.40;1746789;82;21212;-77
2022/04/10 00:04:01;;;;;;;23.50;11.80;;;;;;;7.58;100.00;99149.13;1746761;82;21172;-76
2022/04/10 00:07:07;;;;;;;28.30;12.75;;;;;;;7.57;100.00;99132.44;1745494;82;21240;-77
2022/04/10 00:10:13;;;;;;;25.10;12.00;;;;;;;7.57;100.00;99133.80;1746666;82;21236;-77
2022/04/10 00:13:19;;;;;;;25.90;12.45;;;;;;;7.56;100.00;99137.04;1746725;82;21180;-77
2022/04/10 00:16:24;;;;;;;21.93;11.53;;;;;;;7.56;100.00;99148.45;1746707;82;21145;-76
2022/04/10 00:19:31;;;;;;;25.70;11.83;;;;;;;7.55;100.00;99153.05;1745230;82;21698;-77
2022/04/10 00:22:37;;;;;;;34.67;12.30;;;;;;;7.57;100.00;99151.48;1746678;82;21804;-82
2022/04/10 00:25:41;;;;;;;29.85;12.80;;;;;;;7.57;100.00;99154.20;1746151;82;21754;-77
2022/04/10 00:28:48;;;;;;;25.50;12.55;;;;;;;7.58;100.00;99143.16;1746856;82;21201;-78
2022/04/10 00:31:53;;;;;;;26.10;12.80;;;;;;;7.58;100.00;99139.59;1746887;82;21203;-77
2022/04/10 00:34:59;;;;;;;26.02;11.70;;;;;;;7.57;100.00;99136.52;1746724;82;21153;-76
2022/04/10 00:38:06;;;;;;;26.07;12.20;;;;;;;7.55;100.00;99131.27;1746743;82;21185;-76
2022/04/10 00:41:12;;;;;;;27.30;12.50;;;;;;;7.55;100.00;99134.52;1746701;82;21211;-76
2022/04/10 00:44:20;;;;;;;28.90;12.05;;;;;;;7.57;100.00;99131.08;1746820;82;21165;-77
2022/04/10 00:47:26;;;;;;;31.42;12.85;;;;;;;7.59;100.00;99133.12;1746107;82;21200;-77
2022/04/10 00:50:33;;;;;;;24.20;12.68;;;;;;;7.63;100.00;99130.36;1746595;82;21173;-77
2022/04/10 00:53:38;;;;;;;31.07;12.85;;;;;;;7.68;100.00;99133.36;1745210;82;21212;-77
2022/04/10 00:56:46;;;;;;;32.88;12.93;;;;;;;7.72;100.00;99122.95;1745402;82;21220;-77
2022/04/10 00:59:51;;;;;;;34.38;12.60;;;;;;;7.76;100.00;99116.08;1738910;82;21197;-77
2022/04/10 01:02:58;;;;;;;23.65;12.50;;;;;;;7.81;100.00;99113.64;1737974;82;21221;-77
2022/04/10 01:06:05;;;;;;;27.58;13.08;;;;;;;7.85;100.00;99106.79;1737566;82;21300;-77
2022/04/10 01:09:11;;;;;;;28.87;12.28;;;;;;;7.87;100.00;99106.94;1716727;82;21224;-77
2022/04/10 01:12:13;;;;;;;25.20;12.88;;;;;;;7.90;100.00;99109.30;1738650;82;21723;-77
2022/04/10 01:15:20;;;;;;;31.07;12.70;;;;;;;7.94;100.00;99106.50;1739069;82;21165;-77
2022/04/10 01:18:28;;;;;;;29.77;12.25;;;;;;;7.98;100.00;99096.61;1738978;82;21209;-77
2022/04/10 01:21:34;;;;;;;27.25;12.58;;;;;;;8.00;100.00;99091.31;1737586;82;21163;-77
2022/04/10 01:24:49;;;;;;;24.72;12.93;;;;;;;8.04;100.00;99099.92;1739252;82;21165;-83
2022/04/10 01:27:57;;;;;;;25.40;12.18;;;;;;;8.07;100.00;99095.47;1737995;82;21217;-82
2022/04/10 01:31:04;;;;;;;20.80;12.55;;;;;;;8.09;100.00;99090.17;1737701;82;21291;-82
2022/04/10 01:34:15;;;;;;;28.65;13.20;;;;;;;8.09;100.00;99098.84;1739023;82;21719;-82
2022/04/10 01:37:20;;;;;;;;;;;;;;;8.08;100.00;99103.44;1741366;82;21747;-82
2022/04/10 01:40:27;;;;;;;24.70;11.95;;;;;;;8.09;100.00;99108.37;1739204;82;20197;-82
2022/04/10 01:43:32;;;;;;;26.95;12.68;;;;;;;8.07;100.00;99109.92;1739242;82;21193;-82
2022/04/10 01:46:38;;;;;;;29.27;12.75;;;;;;;8.06;100.00;99096.52;1739136;82;21267;-82
2022/04/10 01:49:36;;;;;;;;;;;;;;;8.04;100.00;99095.84;1741642;82;21747;-82
2022/04/10 01:52:42;;;;;;;23.40;12.60;;;;;;;8.03;100.00;99098.23;1739187;82;20193;-82
2022/04/10 01:55:49;;;;;;;31.95;12.65;;;;;;;8.00;100.00;99097.25;1739204;82;21218;-82
2022/04/10 01:58:55;;;;;;;30.40;12.82;;;;;;;7.97;100.00;99095.77;1739779;81;21173;-82
2022/04/10 02:02:01;;;;;;;27.27;12.23;;;;;;;7.94;100.00;99093.41;1739167;82;21793;-82
2022/04/10 02:05:01;;;;;;;31.57;12.82;;;;;;;7.92;100.00;99089.52;1739102;82;21216;-82
2022/04/10 02:07:54;;;;;;;26.82;13.08;;;;;;;7.93;100.00;99091.72;1737745;82;21229;-82
2022/04/10 02:11:00;;;;;;;28.80;12.82;;;;;;;7.93;100.00;99084.40;1737676;82;21225;-82
2022/04/10 02:14:02;;;;;;;27.05;13.38;;;;;;;7.94;100.00;99089.33;1739137;82;21173;-83
2022/04/10 02:17:09;;;;;;;30.02;13.15;;;;;;;7.93;100.00;99100.73;1738606;82;21586;-82
2022/04/10 02:20:16;;;;;;;26.90;12.30;;;;;;;7.93;100.00;99084.92;1737897;82;21169;-82
2022/04/10 02:23:21;;;;;;;23.32;12.63;;;;;;;7.92;100.00;99075.07;1739250;82;21240;-82
2022/04/10 02:26:27;;;;;;;30.25;13.03;;;;;;;7.90;100.00;99082.56;1737786;82;21256;-82
2022/04/10 02:29:33;;;;;;;33.33;12.60;;;;;;;7.88;100.00;99075.95;1739096;82;21162;-82
2022/04/10 02:32:39;;;;;;;28.30;12.80;;;;;;;7.88;100.00;99075.95;1737614;82;21240;-82
2022/04/10 02:35:46;;;;;;;30.10;12.33;;;;;;;7.87;100.00;99074.27;1739075;82;21145;-82
2022/04/10 02:38:53;;;;;;;29.82;11.35;;;;;;;7.86;100.00;99077.20;1739083;82;21172;-82
2022/04/10 02:41:58;;;;;;;33.40;13.48;;;;;;;7.85;100.00;99082.28;1739165;82;21235;-82
2022/04/10 02:45:03;;;;;;;23.80;12.50;;;;;;;7.83;100.00;99089.81;1739175;82;21220;-82
2022/04/10 02:48:11;;;;;;;29.98;12.23;;;;;;;7.82;100.00;99097.14;1739040;82;21185;-83
2022/04/10 02:51:17;;;;;;;29.02;13.62;;;;;;;7.79;100.00;99101.59;1738969;82;21172;-83
2022/04/10 02:54:23;;;;;;;32.83;13.60;;;;;;;7.80;100.00;99101.91;1739077;82;21173;-82
2022/04/10 02:57:30;;;;;;;34.92;14.10;;;;;;;7.77;100.00;99103.66;1738395;82;21169;-82
2022/04/10 03:00:37;;;;;;;22.73;12.70;;;;;;;7.77;100.00;99102.82;1738337;80;21181;-82
2022/04/10 03:03:45;;;;;;;25.55;11.75;;;;;;;7.74;100.00;99093.14;1737511;82;21185;-82
2022/04/10 03:06:50;;;;;;;32.65;13.20;;;;;;;7.71;100.00;99099.47;1738885;82;21200;-82
2022/04/10 03:09:56;;;;;;;34.15;13.30;;;;;;;7.66;100.00;99105.47;1711243;82;21765;-82
2022/04/10 03:13:03;;;;;;;35.65;13.88;;;;;;;7.62;100.00;99094.14;1738281;82;21189;-82
2022/04/10 03:16:09;;;;;;;30.15;14.18;;;;;;;7.59;100.00;99089.58;1739080;82;21168;-82
2022/04/10 03:19:16;;;;;;;32.38;14.63;;;;;;;7.56;100.00;99102.19;1739036;82;21189;-82
2022/04/10 03:22:22;;;;;;;28.32;13.85;;;;;;;7.54;100.00;99094.22;1738516;82;21746;-82
2022/04/10 03:25:29;;;;;;;32.08;13.50;;;;;;;7.54;100.00;99100.17;1737827;82;21200;-82
2022/04/10 03:28:36;;;;;;;30.27;14.33;;;;;;;7.54;100.00;99108.34;1737494;82;21773;-82
2022/04/10 03:31:42;;;;;;;29.37;14.00;;;;;;;7.55;100.00;99106.78;1737664;82;21204;-82
2022/04/10 03:34:48;;;;;;;32.80;13.43;;;;;;;7.58;100.00;99119.19;1737650;82;21153;-82
2022/04/10 03:37:54;;;;;;;31.20;13.03;;;;;;;7.59;100.00;99114.91;1737846;82;21789;-83
2022/04/10 03:41:01;;;;;;;27.65;12.07;;;;;;;7.63;100.00;99112.67;1737884;82;21176;-82
2022/04/10 03:44:07;;;;;;;31.60;12.68;;;;;;;7.65;100.00;99122.84;1738184;82;21205;-77
2022/04/10 03:47:13;;;;;;;38.53;13.05;;;;;;;7.67;100.00;99120.27;1738673;82;21806;-83
2022/04/10 03:50:19;;;;;;;35.60;14.05;;;;;;;7.71;100.00;99123.45;1739176;82;21213;-79
2022/04/10 03:53:26;;;;;;;33.58;12.65;;;;;;;7.76;100.00;99118.80;1739208;82;21241;-83
2022/04/10 03:56:33;;;;;;;28.55;12.37;;;;;;;7.81;100.00;99129.48;1737804;82;21216;-83
2022/04/10 03:59:38;;;;;;;33.20;12.65;;;;;;;7.87;100.00;99138.25;1738229;82;21248;-83
2022/04/10 04:02:50;;;;;;;27.13;13.72;;;;;;;7.93;100.00;99142.94;1738690;82;21173;-82
2022/04/10 04:05:58;;;;;;;26.70;11.63;;;;;;;8.01;100.00;99151.54;1739090;82;21723;-82
2022/04/10 04:09:04;;;;;;;22.42;11.45;;;;;;;8.10;100.00;99165.91;1737671;82;21240;-82
2022/04/10 04:12:10;;;;;;;30.45;12.73;;;;;;;8.18;100.00;99165.27;1738618;82;21770;-83
2022/04/10 04:15:18;;;;;;;26.50;11.43;;;;;;;8.27;100.00;99179.64;1738617;82;21740;-83
2022/04/10 04:18:25;;;;;;;26.62;11.78;;;;;;;8.39;100.00;99178.70;1737567;82;21194;-83
2022/04/10 04:21:31;;;;;;;29.92;12.55;;;;;;;8.51;100.00;99183.13;1737628;82;21698;-82
2022/04/10 04:24:41;;;;;;;24.23;10.93;;;;;;;8.60;100.00;99180.09;1739044;82;21165;-82
2022/04/10 04:27:47;;;;;;;23.65;10.55;;;;;;;8.72;100.00;99188.64;1737719;82;21240;-82
2022/04/10 04:30:53;;;;;;;25.95;11.68;;;;;;;8.83;100.00;99179.11;1737541;82;21232;-83
2022/04/10 04:34:01;;;;;;;33.60;10.95;;;;;;;8.95;100.00;99190.70;1739122;82;21177;-82
2022/04/10 04:37:09;;;;;;;25.72;11.22;;;;;;;9.07;100.00;99188.81;1738868;82;21201;-82
2022/04/10 04:40:11;;;;;;;26.33;9.83;;;;;;;9.17;100.00;99196.15;1737785;82;21181;-82
2022/04/10 04:43:17;;;;;;;18.07;9.85;;;;;;;9.28;100.00;99203.00;1739027;82;21212;-82
2022/04/10 04:46:22;;;;;;;26.17;9.50;;;;;;;9.35;100.00;99202.00;1738920;82;21177;-83
2022/04/10 04:49:27;;;;;;;28.67;9.88;;;;;;;9.47;100.00;99208.64;1738829;82;21201;-82
2022/04/10 04:52:33;;;;;;;20.90;9.45;;;;;;;9.59;100.00;99205.37;1739098;82;21204;-83
2022/04/10 04:55:39;;;;;;;28.77;10.20;;;;;;;9.71;100.00;99203.28;1738858;82;21217;-82
2022/04/10 04:58:47;;;;;;;22.60;9.83;;;;;;;9.84;100.00;99205.28;1738716;82;21718;-82
2022/04/10 05:01:52;;;;;;;24.65;9.80;;;;;;;9.94;99.04;99200.30;1738660;82;21224;-82
2022/04/10 05:05:00;;;;;;;19.57;8.83;;;;;;;10.06;98.17;99192.91;1738323;82;21237;-83
2022/04/10 05:08:05;;;;;;;27.67;9.50;;;;;;;10.19;97.49;99186.17;1737632;82;21218;-82
2022/04/10 05:11:11;;;;;;;16.82;8.95;;;;;;;10.33;96.55;99190.70;1737805;82;21696;-83
2022/04/10 05:14:17;;;;;;;21.50;8.30;;;;;;;10.50;95.67;99189.84;1736881;82;21670;-82
2022/04/10 05:17:28;;;;;;;22.15;8.80;;;;;;;10.65;94.85;99193.27;1737932;82;21224;-82
2022/04/10 05:20:37;;;;;;;16.05;7.45;;;;;;;10.81;93.35;99198.06;1732793;82;21231;-82
2022/04/10 05:23:44;;;;;;;22.55;7.95;;;;;;;10.95;91.94;99202.00;1737799;82;21758;-82
2022/04/10 05:26:51;;;;;;;24.05;8.40;;;;;;;11.05;90.34;99199.40;1721542;82;21550;-82
2022/04/10 05:29:57;;;;;;;29.37;10.55;;;;;;;11.11;89.86;99206.80;1734374;82;21774;-82
2022/04/10 05:33:03;;;;;;;21.95;8.48;;;;;;;11.16;88.70;99211.97;1671521;86;21203;-83
2022/04/10 05:36:12;;;;;;;20.12;8.55;;;;;;;11.20;87.36;99210.52;1694355;83;21200;-82
2022/04/10 05:39:18;;;;;;;17.35;7.90;;;;;;;11.21;87.21;99207.25;1699117;84;21161;-82
2022/04/10 05:42:23;;;;;;;21.95;8.05;;;;;;;11.24;87.18;99209.55;1698384;84;21201;-83
2022/04/10 05:45:28;;;;;;;19.25;7.95;;;;;;;11.31;86.66;99204.11;1681530;84;21217;-82
2022/04/10 05:48:34;;;;;;;25.20;8.83;;;;;;;11.38;85.80;99203.58;1703353;84;21444;-82
2022/04/10 05:51:41;;;;;;;15.75;7.08;;;;;;;11.48;85.30;99205.41;1695042;84;21292;-82
2022/04/10 05:54:48;;;;;;;18.32;7.78;;;;;;;11.57;84.83;99198.64;1706072;84;21165;-82
2022/04/10 05:57:53;;;;;;;21.70;8.00;;;;;;;11.68;84.70;99210.89;1704184;84;21276;-82
2022/04/10 06:00:59;;;;;;;22.50;8.08;;;;;;;11.77;83.51;99211.84;1678824;85;21216;-82
2022/04/10 06:04:05;;;;;;;21.90;7.97;;;;;;;11.90;83.83;99218.38;1701797;82;21193;-82
2022/04/10 06:07:10;;;;;;;23.32;8.10;;;;;;;12.01;83.63;99215.86;1711325;82;22155;-82
2022/04/10 06:10:10;;;;;;;34.58;7.87;;;;;;;12.13;82.85;99204.24;1695690;84;21218;-82
2022/04/10 06:13:05;;;;;;;18.60;7.50;;;;;;;12.21;81.54;99205.39;1707134;84;21223;-82
2022/04/10 06:16:14;;;;;;;20.70;6.90;;;;;;;12.31;81.26;99206.32;1692818;84;21189;-82
2022/04/10 06:19:20;;;;;;;22.13;6.80;;;;;;;12.49;80.62;99194.98;1714990;82;21158;-82
2022/04/10 06:22:26;;;;;;;15.72;6.85;;;;;;;12.70;78.98;99198.49;1736905;82;21213;-82
2022/04/10 06:25:33;;;;;;;19.52;6.58;;;;;;;12.89;77.52;99200.34;1725897;82;21180;-81
2022/04/10 06:28:38;;;;;;;19.05;7.08;;;;;;;13.12;76.71;99201.14;1715424;82;21265;-82
2022/04/10 06:31:47;;;;;;;17.23;6.60;;;;;;;13.32;75.97;99206.58;1706302;84;21728;-82
2022/04/10 06:34:55;;;;;;;23.90;7.92;;;;;;;13.52;75.89;99205.06;1711591;82;21145;-81
2022/04/10 06:38:02;;;;;;;22.90;6.83;;;;;;;13.69;75.61;99204.84;1707435;84;21236;-82
2022/04/10 06:41:11;;;;;;;16.02;6.70;;;;;;;13.89;74.53;99209.33;1714515;82;21216;-82
2022/04/10 06:44:19;;;;;;;13.98;6.72;;;;;;;14.01;73.31;99212.47;1729289;82;21177;-82
2022/04/10 06:47:31;;;;;;;21.55;7.30;;;;;;;14.04;72.77;99200.19;1746572;82;21168;-82
2022/04/10 06:50:35;;;;;;;17.00;7.37;;;;;;;14.08;72.62;99200.59;1738276;82;21200;-83
2022/04/10 06:53:45;;;;;;;14.47;6.30;;;;;;;14.10;71.73;99199.81;1729470;82;21171;-83
2022/04/10 06:56:52;;;;;;;24.55;7.37;;;;;;;14.13;71.87;99202.96;1733343;82;21240;-82
2022/04/10 06:59:57;;;;;;;26.23;9.50;;;;;;;14.20;72.12;99202.35;1719997;82;21264;-82
2022/04/10 07:03:03;;;;;;;21.30;6.75;;;;;;;14.30;71.93;99201.32;1736481;82;21192;-77
2022/04/10 07:06:09;;;;;;;15.75;6.08;;;;;;;14.38;71.26;99213.92;1739156;82;21231;-83
2022/04/10 07:09:16;;;;;;;19.12;7.00;;;;;;;14.43;71.18;99211.32;1734081;82;21180;-77
2022/04/10 07:12:24;;;;;;;22.77;6.97;;;;;;;14.48;70.52;99208.76;1739298;82;21168;-83
2022/04/10 07:15:31;;;;;;;22.90;6.03;;;;;;;14.53;69.24;99205.32;1749298;82;21169;-83
2022/04/10 07:18:37;;;;;;;17.12;6.30;;;;;;;14.54;69.62;99207.03;1747112;82;21201;-83
2022/04/10 07:25:09;;;;;;;16.95;6.58;;;;;;;14.65;70.04;99206.79;1727348;82;21148;-83
2022/04/10 07:28:16;;;;;;;23.92;6.72;;;;;;;14.72;69.27;99211.66;1732027;82;21153;-83
2022/04/10 07:31:23;;;;;;;18.12;7.03;;;;;;;14.73;69.46;99206.49;1730573;82;21228;-83
2022/04/10 07:34:30;;;;;;;27.30;7.75;;;;;;;14.78;69.40;99220.41;1728632;82;21200;-82
2022/04/10 07:37:38;;;;;;;25.23;6.55;;;;;;;14.87;69.00;99220.40;1731981;82;21335;-82
2022/04/10 07:40:39;;;;;;;14.13;5.90;;;;;;;14.97;68.88;99224.81;1745924;82;21761;-83
2022/04/10 07:43:45;;;;;;;20.57;6.47;;;;;;;15.11;68.61;99234.30;1747026;82;21532;-82
2022/04/10 07:50:15;;;;;;;23.15;7.33;;;;;;;15.43;68.57;99233.51;1742042;82;21734;-82
2022/04/10 07:53:23;;;;;;;20.43;6.50;;;;;;;15.61;67.58;99251.38;1736206;82;21247;-82
2022/04/10 07:56:29;;;;;;;18.25;6.30;;;;;;;15.77;66.87;99254.05;1719966;82;21726;-83
2022/04/10 07:59:36;;;;;;;16.90;6.25;;;;;;;15.94;66.58;99256.41;1726201;82;21723;-83
2022/04/10 08:02:50;;;;;;;27.07;7.20;;;;;;;16.02;65.45;99254.69;1736941;82;21711;-83
2022/04/10 08:06:12;;;;;;;18.70;6.15;;;;;;;16.01;64.81;99257.15;1666418;84;21220;-82
2022/04/10 08:09:13;;;;;;;16.42;6.03;;;;;;;16.12;64.91;99258.78;1723795;82;21189;-83
2022/04/10 08:12:06;;;;;;;16.12;6.80;;;;;;;16.24;64.94;99249.45;1716849;82;21192;-83
2022/04/10 08:15:13;;;;;;;13.53;5.05;;;;;;;16.38;64.79;99245.08;1735621;82;21557;-83
2022/04/10 08:18:19;;;;;;;19.77;7.42;;;;;;;16.48;63.43;99239.25;1733089;82;21192;-83
2022/04/10 08:21:24;;;;;;;16.15;6.67;;;;;;;16.56;63.93;99236.13;1721182;82;21746;-83
2022/04/10 08:24:30;;;;;;;13.58;6.08;;;;;;;16.60;62.37;99224.88;1711864;82;21690;-83
2022/04/10 08:27:37;;;;;;;18.77;5.87;;;;;;;16.55;62.85;99218.41;1736157;82;21763;-83
2022/04/10 08:30:43;;;;;;;19.45;6.17;;;;;;;16.51;62.11;99226.87;1719707;82;21723;-83
2022/04/10 08:33:50;;;;;;;19.67;5.90;;;;;;;16.40;62.45;99220.28;1715803;82;21197;-83
2022/04/10 08:37:02;;;;;;;16.90;6.55;;;;;;;16.41;63.32;99223.34;1720506;82;21240;-83
2022/04/10 08:40:04;;;;;;;18.27;6.83;;;;;;;16.51;62.95;99215.83;1724307;82;21834;-84
2022/04/10 08:43:10;;;;;;;21.73;6.40;;;;;;;16.60;62.72;99212.45;1739755;82;21205;-83
2022/04/10 08:46:16;;;;;;;20.37;6.47;;;;;;;16.67;61.58;99210.13;1710275;84;21165;-83
2022/04/10 08:49:21;;;;;;;19.25;6.95;;;;;;;16.67;61.77;99210.96;1726777;82;21246;-83
2022/04/10 08:52:28;;;;;;;18.12;5.95;;;;;;;16.73;61.55;99211.94;1712334;82;21205;-83
2022/04/10 08:55:35;;;;;;;15.48;6.45;;;;;;;16.80;60.77;99207.97;1721010;82;21245;-83
2022/04/10 08:58:40;;;;;;;18.48;5.72;;;;;;;16.83;60.76;99208.02;1722740;82;21248;-83
2022/04/10 09:01:46;;;;;;;16.70;5.87;;;;;;;16.91;61.05;99209.02;1727925;82;21216;-83
2022/04/10 09:04:54;;;;;;;19.92;5.58;;;;;;;17.00;59.98;99208.94;1716367;82;21272;-83
2022/04/10 09:08:21;;;;;;;11.00;5.42;;;;;;;17.04;59.17;99203.77;1707669;82;21793;-83
2022/04/10 09:11:27;;;;;;;19.05;6.10;;;;;;;17.03;59.59;99205.69;1707656;82;21801;-84
2022/04/10 09:14:35;;;;;;;18.32;5.78;;;;;;;17.03;59.71;99205.69;1723847;82;21754;-83
2022/04/10 09:17:42;;;;;;;16.97;6.15;;;;;;;17.10;59.14;99210.52;1726094;82;21220;-84
2022/04/10 09:20:50;;;;;;;16.17;5.90;;;;;;;17.20;58.44;99209.05;1707197;84;21297;-84
2022/04/10 09:24:02;;;;;;;15.10;5.67;;;;;;;17.19;58.29;99213.73;1718321;82;21177;-83
2022/04/10 09:27:08;;;;;;;17.87;6.10;;;;;;;17.21;58.23;99203.80;1729872;82;21190;-83
2022/04/10 09:30:18;;;;;;;19.05;6.08;;;;;;;17.26;58.31;99205.28;1715305;82;21169;-83
2022/04/10 09:33:23;;;;;;;16.05;6.15;;;;;;;17.24;57.99;99205.55;1728490;82;21217;-82
2022/04/10 09:36:41;;;;;;;15.93;6.28;;;;;;;17.22;58.68;99208.23;1729296;82;21174;-83
2022/04/10 09:39:48;;;;;;;16.95;5.35;;;;;;;17.26;58.96;99208.89;1713073;82;21192;-83
2022/04/10 09:43:05;;;;;;;23.47;5.83;;;;;;;17.40;59.10;99207.20;1709562;82;21188;-83
2022/04/10 09:46:15;;;;;;;17.70;5.58;;;;;;;17.61;58.08;99205.97;1708085;83;21177;-83
2022/04/10 09:49:25;;;;;;;15.10;5.80;;;;;;;17.87;57.72;99198.97;1688934;84;21193;-83
2022/04/10 09:52:32;;;;;;;15.72;6.05;;;;;;;18.07;56.49;99193.50;1708140;83;21205;-82
2022/04/10 09:55:44;;;;;;;10.58;5.20;;;;;;;18.16;55.56;99193.89;1709511;84;21169;-83
2022/04/10 09:58:50;;;;;;;16.25;8.25;;;;;;;18.29;55.35;99196.31;1712228;82;21166;-83
2022/04/10 10:01:56;;;;;;;16.32;5.85;;;;;;;18.47;52.79;99187.73;1724430;82;21220;-83
2022/04/10 10:05:03;;;;;;;15.65;6.10;;;;;;;18.45;53.18;99185.78;1720006;82;21782;-82
2022/04/10 10:08:07;;;;;;;15.68;5.58;;;;;;;18.53;54.56;99190.02;1709335;82;21193;-82
2022/04/10 10:11:13;;;;;;;19.70;6.35;;;;;;;18.64;53.44;99196.84;1739203;82;21197;-83
2022/04/10 10:14:20;;;;;;;15.28;5.67;;;;;;;18.69;53.82;99207.73;1726664;81;21757;-83
2022/04/10 10:17:27;;;;;;;17.73;5.50;;;;;;;18.76;52.82;99209.77;1727917;82;21276;-83
2022/04/10 10:20:33;;;;;;;15.40;5.72;;;;;;;18.84;52.89;99202.39;1726579;82;21260;-83
2022/04/10 10:23:38;;;;;;;23.20;5.62;;;;;;;18.93;52.16;99198.63;1706639;83;21211;-83
2022/04/10 10:27:24;;;;;;;16.67;5.22;;;;;;;18.94;51.19;99196.98;1700382;82;21189;-82
2022/04/10 10:30:40;;;;;;;15.53;4.87;;;;;;;18.95;51.99;99191.72;1738036;82;21217;-83
2022/04/10 10:33:46;;;;;;;22.82;6.60;;;;;;;19.13;51.90;99184.46;1715653;82;21205;-77
2022/04/10 10:36:55;;;;;;;15.08;4.60;;;;;;;19.31;50.70;99180.52;1712704;82;21330;-78
2022/04/10 10:39:59;;;;;;;12.50;4.87;;;;;;;19.41;49.93;99181.16;1738528;82;21237;-77
2022/04/10 10:43:09;;;;;;;15.28;5.30;;;;;;;19.50;49.82;99187.92;1738481;82;21189;-78
2022/04/10 10:46:37;;;;;;;14.35;4.80;;;;;;;19.48;48.46;99190.65;1738650;82;21786;-77
2022/04/10 10:49:56;;;;;;;16.07;5.40;;;;;;;19.39;48.31;99184.77;1737438;82;21212;-77
2022/04/10 10:53:13;;;;;;;12.70;5.15;;;;;;;19.29;48.08;99195.72;1738936;82;21212;-77
2022/04/10 10:56:38;;;;;;;14.23;4.42;;;;;;;19.12;48.28;99192.49;1739135;82;21730;-78
2022/04/10 10:59:45;;;;;;;17.05;5.35;;;;;;;19.03;48.56;99204.30;1738815;82;21213;-77
2022/04/10 11:02:47;;;;;;;18.32;5.75;;;;;;;18.98;48.21;99197.31;1738409;82;21239;-77
2022/04/10 11:05:53;;;;;;;11.00;4.45;;;;;;;18.88;48.39;99195.25;1738520;82;21208;-77
2022/04/10 11:08:59;;;;;;;16.35;4.42;;;;;;;18.80;48.17;99189.59;1737855;81;21174;-78
2022/04/10 11:12:06;;;;;;;9.80;4.47;;;;;;;18.77;48.60;99187.88;1713583;82;21239;-77
2022/04/10 11:15:21;;;;;;;13.83;4.37;;;;;;;18.89;48.89;99188.61;1748707;82;21801;-77
2022/04/10 11:18:37;;;;;;;11.90;4.40;;;;;;;19.04;47.20;99186.02;1729451;82;21200;-77
2022/04/10 11:21:42;;;;;;;11.08;4.25;;;;;;;19.15;47.03;99182.84;1744346;82;21165;-77
2022/04/10 11:24:49;;;;;;;12.13;3.72;;;;;;;19.17;45.91;99179.80;1690498;84;21230;-78
2022/04/10 11:28:11;;;;;;;14.53;4.83;;;;;;;19.11;46.07;99173.36;1718099;82;21723;-78
2022/04/10 11:31:32;;;;;;;11.10;3.85;;;;;;;19.02;46.45;99162.45;1727217;82;21200;-78
2022/04/10 11:34:32;;;;;;;14.47;5.28;;;;;;;19.02;46.33;99166.05;1719092;83;21208;-78
2022/04/10 11:37:47;;;;;;;8.70;3.45;;;;;;;19.11;46.47;99163.11;1720771;82;21770;-78
2022/04/10 11:40:57;;;;;;;14.87;4.87;;;;;;;19.20;45.59;99157.11;1748107;82;21219;-78
2022/04/10 11:44:03;;;;;;;9.45;3.92;;;;;;;19.23;46.06;99153.25;1730985;82;21160;-76
2022/04/10 11:47:10;;;;;;;15.50;5.17;;;;;;;19.32;45.93;99142.53;1747543;82;22253;-76
2022/04/10 11:50:17;;;;;;;20.50;4.62;;;;;;;19.41;45.22;99149.28;1747682;82;21473;-77
2022/04/10 11:53:21;;;;;;;15.68;4.05;;;;;;;19.52;45.18;99146.87;1747773;82;21200;-77
2022/04/10 11:56:26;;;;;;;11.53;4.10;;;;;;;19.62;44.59;99138.71;1747808;82;21192;-76
2022/04/10 11:59:34;;;;;;;15.18;4.87;;;;;;;19.68;44.79;99135.98;1747387;82;21177;-76
2022/04/10 12:02:39;;;;;;;7.70;3.40;;;;;;;19.70;44.40;99135.15;1749102;82;21765;-77
2022/04/10 12:05:45;;;;;;;11.00;3.55;;;;;;;19.61;44.17;99125.92;1732004;82;21153;-76
2022/04/10 12:08:51;;;;;;;11.10;3.90;;;;;;;19.56;44.11;99125.84;1748210;82;21219;-77
2022/04/10 12:11:56;;;;;;;15.23;4.08;;;;;;;19.52;44.23;99123.30;1720572;82;21727;-77
2022/04/10 12:15:03;;;;;;;11.15;3.90;;;;;;;19.49;44.96;99116.92;1716096;82;21711;-76
2022/04/10 12:18:18;;;;;;;12.65;4.58;;;;;;;19.47;44.75;99116.88;1738231;82;21224;-76
2022/04/10 12:21:23;;;;;;;16.50;4.47;;;;;;;19.43;44.36;99110.19;1739362;82;21212;-76
2022/04/10 12:24:29;;;;;;;11.22;4.80;;;;;;;19.38;44.64;99102.66;1739500;82;21711;-77
2022/04/10 12:27:35;;;;;;;11.28;4.15;;;;;;;19.38;44.39;99099.88;1738886;82;21213;-77
2022/04/10 12:30:40;;;;;;;11.08;4.42;;;;;;;19.37;45.17;99087.13;1739561;82;21182;-77
2022/04/10 12:33:46;;;;;;;9.50;4.78;;;;;;;19.37;44.72;99087.13;1738671;82;22023;-76
2022/04/10 12:36:57;;;;;;;13.72;4.75;;;;;;;19.30;44.18;99088.74;1738550;82;21212;-76
2022/04/10 12:40:06;;;;;;;7.40;3.65;;;;;;;19.20;44.42;99089.20;1737349;82;21707;-77
2022/04/10 12:43:15;;;;;;;11.03;4.10;;;;;;;19.10;44.58;99088.52;1738796;82;21197;-76
2022/04/10 12:46:23;;;;;;;13.75;4.67;;;;;;;19.04;45.61;99086.25;1737706;82;21181;-76
2022/04/10 12:49:29;;;;;;;8.30;3.92;;;;;;;19.00;45.16;99078.72;1737119;82;21766;-77
2022/04/10 12:52:34;;;;;;;24.85;13.10;;;;;;;18.94;45.98;99079.78;1738691;82;21173;-77
2022/04/10 12:55:42;;;;;;;12.15;5.42;;;;;;;18.92;45.33;99080.05;1718051;82;21209;-76
2022/04/10 12:58:55;;;;;;;11.55;4.25;;;;;;;18.97;46.62;99078.72;1738704;82;21161;-76
2022/04/10 13:02:02;;;;;;;14.93;4.45;;;;;;;19.05;45.86;99072.68;1739796;82;21223;-76
2022/04/10 13:05:13;;;;;;;9.25;3.67;;;;;;;19.13;45.47;99078.31;1739926;82;21161;-76
2022/04/10 13:08:19;;;;;;;14.00;4.22;;;;;;;19.13;45.24;99079.14;1738747;82;21161;-76
2022/04/10 13:11:24;;;;;;;8.80;3.60;;;;;;;19.14;44.26;99072.50;1740221;82;21185;-77
2022/04/10 13:14:29;;;;;;;9.45;3.58;;;;;;;19.14;43.98;99066.12;1739138;82;21197;-76
2022/04/10 13:17:46;;;;;;;12.63;3.65;;;;;;;19.13;43.05;99070.83;1738257;82;21165;-77
2022/04/10 13:20:52;;;;;;;10.45;3.72;;;;;;;19.17;43.35;99075.86;1737517;82;21723;-77
2022/04/10 13:23:57;;;;;;;11.00;3.70;;;;;;;19.22;42.77;99073.13;1739120;82;21233;-76
2022/04/10 13:27:04;;;;;;;9.40;4.08;;;;;;;19.24;43.14;99062.61;1738717;82;21193;-76
2022/04/10 13:30:10;;;;;;;10.30;3.72;;;;;;;19.30;43.25;99062.96;1739092;82;21978;-76
2022/04/10 13:33:15;;;;;;;18.00;5.58;;;;;;;19.35;43.40;99069.94;1739250;82;21181;-76
2022/04/10 13:36:20;;;;;;;17.85;6.90;;;;;;;19.36;43.78;99066.89;1739189;82;21196;-77
2022/04/10 13:39:26;;;;;;;12.75;5.60;;;;;;;19.37;43.35;99063.01;1739227;82;21165;-76
2022/04/10 13:42:34;;;;;;;12.10;4.70;;;;;;;19.36;43.39;99056.35;1739199;82;21224;-76
2022/04/10 13:45:39;;;;;;;16.97;4.37;;;;;;;19.36;43.66;99059.12;1739283;82;21150;-76
2022/04/10 13:48:45;;;;;;;11.10;3.85;;;;;;;19.37;44.00;99052.47;1739061;82;21778;-76
2022/04/10 13:51:51;;;;;;;10.50;4.33;;;;;;;19.36;43.44;99054.41;1734181;82;21189;-77
2022/04/10 13:54:58;;;;;;;10.72;4.25;;;;;;;19.34;43.97;99062.72;1716564;82;21208;-78
2022/04/10 13:58:04;;;;;;;7.50;3.58;;;;;;;19.32;43.76;99059.36;1736921;82;21217;-78
2022/04/10 14:01:11;;;;;;;12.53;3.95;;;;;;;19.31;43.74;99060.47;1739039;82;21217;-77
2022/04/10 14:04:18;;;;;;;6.72;3.55;;;;;;;19.30;43.93;99056.03;1738913;82;21225;-77
2022/04/10 14:07:26;;;;;;;14.23;4.37;;;;;;;19.28;44.17;99049.89;1737844;82;21213;-78
2022/04/10 14:10:33;;;;;;;11.55;4.25;;;;;;;19.22;43.83;99061.49;1737694;82;21189;-78
2022/04/10 14:13:40;;;;;;;11.18;4.05;;;;;;;19.15;44.94;99060.33;1744743;82;21176;-77
2022/04/10 14:16:46;;;;;;;16.32;4.47;;;;;;;19.12;44.73;99056.69;1749008;82;21660;-77
2022/04/10 14:19:53;;;;;;;17.12;4.45;;;;;;;19.09;45.49;99057.20;1748899;82;21180;-77
2022/04/10 14:22:59;;;;;;;17.07;4.42;;;;;;;19.05;45.17;99055.22;1747548;82;21223;-77
2022/04/10 14:26:10;;;;;;;13.08;5.20;;;;;;;18.96;45.21;99065.09;1749189;82;21177;-77
2022/04/10 14:29:07;;;;;;;16.57;5.92;;;;;;;18.83;45.97;99067.20;1749115;82;21754;-77
2022/04/10 14:32:13;;;;;;;15.00;5.15;;;;;;;18.70;46.09;99057.91;1749234;82;21201;-76
2022/04/10 14:35:18;;;;;;;17.48;5.42;;;;;;;18.59;45.65;99058.31;1749597;82;21767;-77